메인 페이지
METAR-TAF:

METAR-TAF

공항 :

Slidell Airport

Slidell, 루이지애나, 미국

위도: 30-20-35N, 경도: 089-49-19W, 고도: 9m

현재 날씨관측

예보는 54분 전, 13:53시(UTC)에 발표되었습니다.
6kt
온도 26°C
습도 79%
기압 1017 hPa
시정: 16.1km
고도 1300ft 상공 구름 조금

METAR: KASD 291353Z AUTO 36006KT 10SM FEW013 26/22 A3002 RMK AO2 SLP164 T02610217

시각: 09:47 (14:47 UTC)

예보

예보는 3 시간 27분 전, 11:20시(UTC)에 발표되었습니다.
예보 대상 시간: 29일 12시부터 30일 12시까지 (UTC)
kt
시정: 10km
고도 4000ft 상공 구름 조금
시계 내 소나기
29일 1330시부터 (UTC)
여러 방향의 바람 5kt
시정: 10km
고도 2500ft 상공 구름 보통, 적란운.
고도 5000ft 상공 구름 많음
시계 내 뇌우
29일 2100시부터 (UTC)
5kt
시정: 10km
고도 10000ft 상공 구름 많음, 적란운.
시계 내 뇌우
30일 0000시부터 (UTC)
여러 방향의 바람 3kt
시정: 10km
고도 25000ft 상공 구름 보통

TAF: KASD 291120Z 2912/3012 00000KT P6SM VCSH FEW040 FM291330 VRB05KT P6SM VCTS SCT025CB BKN050 FM292100 01005KT P6SM VCTS BKN100CB FM300000 VRB03KT P6SM SCT250

4,000개 이상의 공항 관측 자료 및 예보 (METAR 및 TAF 보고).

지도상에서 검색 가능한 기상관측소가 노란 점과 빨간 점으로 표시되어 있습니다.

기상관측소 명을 보려면 표시 위로 마우스를 이동하세요.

날씨 관측과 예보를 보려면 클릭하세요.

지도 변경 : 확대하려면 엑스 표시가 있는 녹색 버튼, 축소하려면 빼기 표시가 있는 녹색 버튼, 다음 페이지의 지도를 보려면 녹색 화살표를 클릭하세요.


METAR-TAF: